createdAt,value
2017-06-22T00:02:12.575Z,19.40
2017-06-22T00:04:40.016Z,19.40
2017-06-22T00:07:08.253Z,19.30
2017-06-22T00:09:35.715Z,19.30
2017-06-22T00:12:03.193Z,19.20
2017-06-22T00:14:30.633Z,19.10
2017-06-22T00:16:58.098Z,19.20
2017-06-22T00:19:25.562Z,19.10
2017-06-22T00:21:53.013Z,19.00
2017-06-22T00:24:20.461Z,18.90
2017-06-22T00:26:47.927Z,18.90
2017-06-22T00:29:15.373Z,19.00
2017-06-22T00:31:42.829Z,18.90
2017-06-22T00:34:10.273Z,18.80
2017-06-22T00:36:38.061Z,18.90
2017-06-22T00:39:05.505Z,18.80
2017-06-22T00:41:32.949Z,18.80
2017-06-22T00:44:00.404Z,18.70
2017-06-22T00:46:27.848Z,18.60
2017-06-22T00:48:55.306Z,18.60
2017-06-22T00:51:22.761Z,18.70
2017-06-22T00:53:50.232Z,18.60
2017-06-22T00:56:17.678Z,18.70
2017-06-22T00:58:45.138Z,18.70
2017-06-22T01:01:12.588Z,18.60
2017-06-22T01:03:40.053Z,18.40
2017-06-22T01:06:07.505Z,18.20
2017-06-22T01:08:34.973Z,18.20
2017-06-22T01:11:02.421Z,18.20
2017-06-22T01:13:29.874Z,18.30
2017-06-22T01:15:57.333Z,18.30
2017-06-22T01:18:25.097Z,18.30
2017-06-22T01:20:52.556Z,18.30
2017-06-22T01:23:20.010Z,18.40
2017-06-22T01:25:47.483Z,18.30
2017-06-22T01:28:14.922Z,18.30
2017-06-22T01:30:42.381Z,18.20
2017-06-22T01:33:09.869Z,18.30
2017-06-22T01:35:37.324Z,18.20
2017-06-22T01:38:04.777Z,18.10
2017-06-22T01:40:32.249Z,18.10
2017-06-22T01:42:59.697Z,18.10
2017-06-22T01:45:27.170Z,18.00
2017-06-22T01:47:54.722Z,17.70
2017-06-22T01:50:22.169Z,17.60
2017-06-22T01:52:49.633Z,17.70
2017-06-22T01:55:17.081Z,17.70
2017-06-22T01:57:44.549Z,17.60
2017-06-22T02:00:11.999Z,17.60
2017-06-22T02:02:39.449Z,17.60
2017-06-22T02:05:06.893Z,17.50
2017-06-22T02:07:34.357Z,17.60
2017-06-22T02:10:01.817Z,17.70
2017-06-22T02:12:29.286Z,17.70
2017-06-22T02:14:56.741Z,17.60
2017-06-22T02:17:24.206Z,17.70
2017-06-22T02:19:51.645Z,17.70
2017-06-22T02:22:19.121Z,17.70
2017-06-22T02:24:46.569Z,17.60
2017-06-22T02:27:14.017Z,17.50
2017-06-22T02:29:41.474Z,17.40
2017-06-22T02:32:08.937Z,17.40
2017-06-22T02:34:36.410Z,17.40
2017-06-22T02:37:03.851Z,17.50
2017-06-22T02:39:31.309Z,17.50
2017-06-22T02:41:58.757Z,17.50
2017-06-22T02:44:26.261Z,17.50
2017-06-22T02:46:54.473Z,17.40
2017-06-22T02:49:21.936Z,17.40
2017-06-22T02:51:49.385Z,17.30
2017-06-22T02:54:16.849Z,17.40
2017-06-22T02:56:44.297Z,17.30
2017-06-22T02:59:11.757Z,17.30
2017-06-22T03:01:39.212Z,17.20
2017-06-22T03:04:07.076Z,17.20
2017-06-22T03:06:34.540Z,17.10
2017-06-22T03:09:01.990Z,16.90
2017-06-22T03:11:29.449Z,16.90
2017-06-22T03:13:56.906Z,17.00
2017-06-22T03:16:24.362Z,17.10
2017-06-22T03:18:51.817Z,17.20
2017-06-22T03:21:19.353Z,17.30
2017-06-22T03:23:46.816Z,17.30
2017-06-22T03:26:15.029Z,17.30
2017-06-22T03:28:42.485Z,17.20
2017-06-22T03:31:09.949Z,17.20
2017-06-22T03:33:37.409Z,17.20
2017-06-22T03:36:04.857Z,17.20
2017-06-22T03:38:32.321Z,17.20
2017-06-22T03:40:59.773Z,17.10
2017-06-22T03:43:27.241Z,17.10
2017-06-22T03:45:54.689Z,17.20
2017-06-22T03:48:22.161Z,17.20
2017-06-22T03:50:49.613Z,17.30
2017-06-22T03:53:17.069Z,17.40
2017-06-22T03:55:44.521Z,17.60
2017-06-22T03:58:11.985Z,17.60
2017-06-22T04:00:39.445Z,17.60
2017-06-22T04:03:06.909Z,17.70
2017-06-22T04:05:34.370Z,17.80
2017-06-22T04:08:01.857Z,17.80
2017-06-22T04:10:29.313Z,17.90
2017-06-22T04:12:56.765Z,17.90
2017-06-22T04:15:24.225Z,18.00
2017-06-22T04:17:51.673Z,18.10
2017-06-22T04:20:19.902Z,18.30
2017-06-22T04:22:47.349Z,18.30
2017-06-22T04:25:14.809Z,18.40
2017-06-22T04:27:42.273Z,18.50
2017-06-22T04:30:09.852Z,18.80
2017-06-22T04:32:37.297Z,19.20
2017-06-22T04:35:04.762Z,19.50
2017-06-22T04:37:32.205Z,19.70
2017-06-22T04:39:59.688Z,19.90
2017-06-22T04:42:27.911Z,20.20
2017-06-22T04:44:55.367Z,20.20
2017-06-22T04:47:22.833Z,20.20
2017-06-22T04:49:50.281Z,20.40
2017-06-22T04:52:17.749Z,20.40
2017-06-22T04:54:45.201Z,20.60
2017-06-22T04:57:12.677Z,20.80
2017-06-22T04:59:40.125Z,21.10
2017-06-22T05:02:07.596Z,21.50
2017-06-22T05:04:35.055Z,21.70
2017-06-22T05:07:02.521Z,22.00
2017-06-22T05:09:29.966Z,22.40
2017-06-22T05:11:57.431Z,22.70
2017-06-22T05:14:24.876Z,23.10
2017-06-22T05:16:52.333Z,23.40
2017-06-22T05:19:19.793Z,23.80
2017-06-22T05:21:47.245Z,24.00
2017-06-22T05:24:14.697Z,24.30
2017-06-22T05:26:42.141Z,24.60
2017-06-22T05:29:09.601Z,24.90
2017-06-22T05:31:37.062Z,25.20
2017-06-22T05:34:04.534Z,25.40
2017-06-22T05:36:32.000Z,25.50
2017-06-22T05:38:59.467Z,25.60
2017-06-22T05:41:26.910Z,25.40
2017-06-22T05:43:54.734Z,25.60
2017-06-22T05:46:22.170Z,25.60
2017-06-22T05:48:50.403Z,25.60
2017-06-22T05:51:17.857Z,25.60
2017-06-22T05:53:45.318Z,25.50
2017-06-22T05:56:12.769Z,25.60
2017-06-22T05:58:40.226Z,25.80
2017-06-22T06:01:07.682Z,26.10
2017-06-22T06:03:35.145Z,26.60
2017-06-22T06:06:02.617Z,27.10
2017-06-22T06:08:30.082Z,27.50
2017-06-22T06:10:57.555Z,27.70
2017-06-22T06:13:25.777Z,27.90
2017-06-22T06:15:53.237Z,27.90
2017-06-22T06:18:20.701Z,28.00
2017-06-22T06:20:48.174Z,28.10
2017-06-22T06:23:15.617Z,28.40
2017-06-22T06:25:43.078Z,28.70
2017-06-22T06:28:10.541Z,28.90
2017-06-22T06:30:37.997Z,29.30
2017-06-22T06:33:05.456Z,29.40
2017-06-22T06:35:32.914Z,29.70
2017-06-22T06:38:00.390Z,30.20
2017-06-22T06:40:28.615Z,30.70
2017-06-22T06:42:56.091Z,30.70
2017-06-22T06:45:23.549Z,31.00
2017-06-22T06:47:51.010Z,31.30
2017-06-22T06:50:18.467Z,31.50
2017-06-22T06:52:45.939Z,31.70
2017-06-22T06:55:13.393Z,31.90
2017-06-22T06:57:40.844Z,32.40
2017-06-22T07:00:08.309Z,32.70
2017-06-22T07:02:35.758Z,32.80
2017-06-22T07:05:03.214Z,32.80
2017-06-22T07:07:30.677Z,33.10
2017-06-22T07:09:58.150Z,33.40
2017-06-22T07:12:26.371Z,34.20
2017-06-22T07:14:53.834Z,34.10
2017-06-22T07:17:21.297Z,34.60
2017-06-22T07:19:48.770Z,34.80
2017-06-22T07:22:16.213Z,35.00
2017-06-22T07:24:43.675Z,35.40
2017-06-22T07:27:11.126Z,35.70
2017-06-22T07:29:38.589Z,35.80
2017-06-22T07:32:06.062Z,36.00
2017-06-22T07:34:33.526Z,35.80
2017-06-22T07:37:00.989Z,35.70
2017-06-22T07:39:28.443Z,35.80
2017-06-22T07:41:55.893Z,36.10
2017-06-22T07:44:23.349Z,36.20
2017-06-22T07:46:50.814Z,36.20
2017-06-22T07:49:18.270Z,36.20
2017-06-22T07:51:45.742Z,36.20
2017-06-22T07:54:13.961Z,36.40
2017-06-22T07:56:41.417Z,36.40
2017-06-22T07:59:08.884Z,36.30
2017-06-22T08:01:36.329Z,36.20
2017-06-22T08:04:03.801Z,35.80
2017-06-22T08:06:31.242Z,35.70
2017-06-22T08:11:23.538Z,35.70
2017-06-22T08:13:50.997Z,35.80
2017-06-22T08:16:18.460Z,35.90
2017-06-22T08:18:46.684Z,36.10
2017-06-22T08:21:14.142Z,36.00
2017-06-22T08:23:41.613Z,36.00
2017-06-22T08:26:16.090Z,36.00
2017-06-22T08:28:43.555Z,36.20
2017-06-22T08:31:11.002Z,36.30
2017-06-22T08:33:38.467Z,36.20
2017-06-22T08:36:05.944Z,35.80
2017-06-22T08:38:33.385Z,35.50
2017-06-22T08:41:00.849Z,35.50
2017-06-22T08:43:28.294Z,35.70
2017-06-22T08:45:55.762Z,35.70
2017-06-22T08:48:23.218Z,35.80
2017-06-22T08:50:50.686Z,35.80
2017-06-22T08:53:18.146Z,35.60
2017-06-22T08:55:45.618Z,35.30
2017-06-22T08:58:13.077Z,35.80
2017-06-22T09:00:40.559Z,36.00
2017-06-22T09:03:08.008Z,36.30
2017-06-22T09:05:35.470Z,36.20
2017-06-22T09:08:02.929Z,36.20
2017-06-22T09:10:30.386Z,36.20
2017-06-22T09:12:57.857Z,36.20
2017-06-22T09:15:26.078Z,36.40
2017-06-22T09:17:53.539Z,36.40
2017-06-22T09:20:20.989Z,36.70
2017-06-22T09:22:48.448Z,36.90
2017-06-22T09:25:15.917Z,37.30
2017-06-22T09:27:43.377Z,37.70
2017-06-22T09:30:10.831Z,37.80
2017-06-22T09:32:38.297Z,38.20
2017-06-22T09:35:05.754Z,38.20
2017-06-22T09:37:33.218Z,37.90
2017-06-22T09:40:00.674Z,37.60
2017-06-22T09:42:28.129Z,37.40
2017-06-22T09:45:16.510Z,37.30
2017-06-22T09:47:44.738Z,36.90
2017-06-22T09:50:12.217Z,36.90
2017-06-22T09:52:39.666Z,37.10
2017-06-22T09:55:07.140Z,37.60
2017-06-22T09:57:34.602Z,38.00
2017-06-22T10:00:02.076Z,38.20
2017-06-22T10:02:30.290Z,38.80
2017-06-22T10:04:57.757Z,38.70
2017-06-22T10:07:25.218Z,39.00
2017-06-22T10:09:52.686Z,39.30
2017-06-22T10:12:20.141Z,39.50
2017-06-22T10:14:47.610Z,39.30
2017-06-22T10:17:15.062Z,39.40
2017-06-22T10:19:42.509Z,39.80
2017-06-22T10:22:09.966Z,40.10
2017-06-22T10:24:37.421Z,40.20
2017-06-22T10:27:04.898Z,40.30
2017-06-22T10:29:32.362Z,39.20
2017-06-22T10:31:59.821Z,38.80
2017-06-22T10:34:28.045Z,38.80
2017-06-22T10:36:55.517Z,38.80
2017-06-22T10:39:22.982Z,38.90
2017-06-22T10:41:50.457Z,38.80
2017-06-22T10:44:18.898Z,37.90
2017-06-22T10:46:46.378Z,37.90
2017-06-22T10:49:13.834Z,37.40
2017-06-22T10:51:41.288Z,37.60
2017-06-22T10:54:08.755Z,37.70
2017-06-22T10:56:36.202Z,38.00
2017-06-22T10:59:03.661Z,38.50
2017-06-22T11:01:31.114Z,39.00
2017-06-22T11:03:58.578Z,39.00
2017-06-22T11:06:26.024Z,38.70
2017-06-22T11:08:53.495Z,38.60
2017-06-22T11:11:20.955Z,38.70
2017-06-22T11:13:48.418Z,38.50
2017-06-22T11:16:15.880Z,38.40
2017-06-22T11:18:43.338Z,38.40
2017-06-22T11:21:10.790Z,38.60
2017-06-22T11:23:38.254Z,38.60
2017-06-22T11:26:05.701Z,38.40
2017-06-22T11:28:33.166Z,37.70
2017-06-22T11:31:00.640Z,37.90
2017-06-22T11:33:28.854Z,37.50
2017-06-22T11:35:56.321Z,37.40
2017-06-22T11:38:23.785Z,36.90
2017-06-22T11:40:51.258Z,36.90
2017-06-22T11:43:18.702Z,36.00
2017-06-22T11:45:46.160Z,35.70
2017-06-22T11:48:13.610Z,36.00
2017-06-22T11:50:41.077Z,36.10
2017-06-22T11:53:08.537Z,36.40
2017-06-22T11:55:35.998Z,37.00
2017-06-22T11:58:03.458Z,37.20
2017-06-22T12:00:30.906Z,37.40
2017-06-22T12:02:58.378Z,37.40
2017-06-22T12:05:25.883Z,37.60
2017-06-22T12:07:53.333Z,37.60
2017-06-22T12:10:20.782Z,37.90
2017-06-22T12:12:48.250Z,37.90
2017-06-22T12:15:15.700Z,38.60
2017-06-22T12:17:43.161Z,39.00
2017-06-22T12:20:10.626Z,38.60
2017-06-22T12:22:38.102Z,37.30
2017-06-22T12:25:05.561Z,37.00
2017-06-22T12:27:33.034Z,37.40
2017-06-22T12:30:00.491Z,37.40
2017-06-22T12:32:27.944Z,37.20
2017-06-22T12:34:55.409Z,37.40
2017-06-22T12:37:22.861Z,37.60
2017-06-22T12:39:50.333Z,37.60
2017-06-22T12:42:17.802Z,37.30
2017-06-22T12:44:46.050Z,35.50
2017-06-22T12:47:13.497Z,35.50
2017-06-22T12:49:40.966Z,34.70
2017-06-22T12:52:08.421Z,34.10
2017-06-22T12:54:35.893Z,33.60
2017-06-22T12:57:03.357Z,33.10
2017-06-22T12:59:30.845Z,32.50
2017-06-22T13:01:58.302Z,32.10
2017-06-22T13:04:25.771Z,32.20
2017-06-22T13:06:53.245Z,32.40
2017-06-22T13:09:20.708Z,32.70
2017-06-22T13:11:48.183Z,32.90
2017-06-22T13:14:15.643Z,33.10
2017-06-22T13:16:43.115Z,33.10
2017-06-22T13:19:10.565Z,33.10
2017-06-22T13:21:38.033Z,32.80
2017-06-22T13:24:06.262Z,32.20
2017-06-22T13:26:33.742Z,32.20
2017-06-22T13:29:01.206Z,32.00
2017-06-22T13:31:28.682Z,31.70
2017-06-22T13:33:56.138Z,31.10
2017-06-22T13:36:23.590Z,30.70
2017-06-22T13:38:51.052Z,30.20
2017-06-22T13:41:19.282Z,29.50
2017-06-22T13:46:46.519Z,29.40
2017-06-22T13:49:13.989Z,29.10
2017-06-22T13:51:41.449Z,28.90
2017-06-22T13:54:08.925Z,28.80
2017-06-22T13:56:36.385Z,28.70
2017-06-22T13:59:03.872Z,28.60
2017-06-22T14:01:31.333Z,28.70
2017-06-22T14:03:58.802Z,28.80
2017-06-22T14:06:27.029Z,29.10
2017-06-22T14:08:54.522Z,29.20
2017-06-22T14:11:21.977Z,29.50
2017-06-22T14:13:49.446Z,29.70
2017-06-22T14:16:17.678Z,29.90
2017-06-22T14:18:45.137Z,29.90
2017-06-22T14:21:12.604Z,30.10
2017-06-22T14:23:40.065Z,30.20
2017-06-22T14:26:07.527Z,30.20
2017-06-22T14:28:34.989Z,29.50
2017-06-22T14:31:02.461Z,28.30
2017-06-22T14:33:29.926Z,26.80
2017-06-22T14:36:11.893Z,24.70
2017-06-22T14:38:39.366Z,24.60
2017-06-22T14:41:06.832Z,24.20
2017-06-22T14:43:35.074Z,23.60
2017-06-22T14:46:02.531Z,23.50
2017-06-22T14:48:30.010Z,23.40
2017-06-22T14:50:57.470Z,23.00
2017-06-22T14:53:24.946Z,22.80
2017-06-22T14:55:52.402Z,22.60
2017-06-22T14:58:19.870Z,22.60
2017-06-22T15:00:47.349Z,22.50
2017-06-22T15:03:14.808Z,22.40
2017-06-22T15:05:42.274Z,22.30
2017-06-22T15:08:09.737Z,22.50
2017-06-22T15:10:37.212Z,22.50
2017-06-22T15:13:04.675Z,22.50
2017-06-22T15:15:32.129Z,22.70
2017-06-22T15:17:59.602Z,22.70
2017-06-22T15:20:27.055Z,22.80
2017-06-22T15:22:54.513Z,22.90
2017-06-22T15:25:22.753Z,23.00
2017-06-22T15:27:50.226Z,23.00
2017-06-22T15:30:17.677Z,23.10
2017-06-22T15:32:45.135Z,23.20
2017-06-22T15:35:12.605Z,23.30
2017-06-22T15:37:40.062Z,23.20
2017-06-22T15:40:07.529Z,23.00
2017-06-22T15:42:34.993Z,22.90
2017-06-22T15:45:04.458Z,22.80
2017-06-22T15:47:31.917Z,22.60
2017-06-22T15:49:59.379Z,22.40
2017-06-22T15:52:26.861Z,22.20
2017-06-22T15:54:54.321Z,21.80
2017-06-22T15:57:21.801Z,21.50
2017-06-22T15:59:49.257Z,21.30
2017-06-22T16:02:17.494Z,20.90
2017-06-22T16:04:44.954Z,20.80
2017-06-22T16:07:12.425Z,20.80
2017-06-22T16:09:39.891Z,20.80
2017-06-22T16:12:07.349Z,20.80
2017-06-22T16:14:35.586Z,20.90
2017-06-22T16:17:03.042Z,20.90
2017-06-22T16:19:30.519Z,21.00
2017-06-22T16:21:57.977Z,20.80
2017-06-22T16:24:25.454Z,20.60
2017-06-22T16:26:53.677Z,20.40
2017-06-22T16:29:21.151Z,20.40
2017-06-22T16:31:48.600Z,19.90
2017-06-22T16:34:16.087Z,19.50
2017-06-22T16:36:43.545Z,19.20
2017-06-22T16:39:11.006Z,19.00
2017-06-22T16:41:38.483Z,19.00
2017-06-22T16:44:06.699Z,18.90
2017-06-22T16:46:34.174Z,18.90
2017-06-22T16:49:01.633Z,18.90
2017-06-22T16:51:29.104Z,18.90
2017-06-22T16:53:56.570Z,18.90
2017-06-22T16:56:24.044Z,18.90
2017-06-22T16:58:52.258Z,19.00
2017-06-22T17:01:19.754Z,19.00
2017-06-22T17:03:47.201Z,19.00
2017-06-22T17:06:14.664Z,19.10
2017-06-22T17:08:42.138Z,19.20
2017-06-22T17:11:10.370Z,19.50
2017-06-22T17:13:37.829Z,19.50
2017-06-22T17:16:05.282Z,19.60
2017-06-22T17:18:32.755Z,19.80
2017-06-22T17:21:00.201Z,20.00
2017-06-22T17:23:27.661Z,20.20
2017-06-22T17:26:06.400Z,20.60
2017-06-22T17:28:34.040Z,20.90
2017-06-22T17:31:01.481Z,21.10
2017-06-22T17:33:28.938Z,21.40
2017-06-22T17:35:56.414Z,21.70
2017-06-22T17:38:23.873Z,21.90
2017-06-22T17:40:51.348Z,22.00
2017-06-22T17:43:18.793Z,22.20
2017-06-22T17:45:46.264Z,22.30
2017-06-22T17:48:13.718Z,22.40
2017-06-22T17:50:41.184Z,22.50
2017-06-22T17:53:08.641Z,22.70
2017-06-22T17:55:36.113Z,22.90
2017-06-22T17:58:04.333Z,23.30
2017-06-22T18:00:31.793Z,23.20
2017-06-22T18:02:59.244Z,23.40
2017-06-22T18:05:26.709Z,23.50
2017-06-22T18:07:54.157Z,23.60
2017-06-22T18:10:21.609Z,23.70
2017-06-22T18:12:49.073Z,23.70
2017-06-22T18:15:16.530Z,23.80
2017-06-22T18:17:44.083Z,23.80
2017-06-22T18:20:11.521Z,23.90
2017-06-22T18:22:39.004Z,24.00
2017-06-22T18:25:06.445Z,24.10
2017-06-22T18:27:33.918Z,24.20
2017-06-22T18:30:01.373Z,24.30
2017-06-22T18:32:28.829Z,24.40
2017-06-22T18:34:56.337Z,24.50
2017-06-22T18:37:24.557Z,24.10
2017-06-22T18:39:52.030Z,24.10
2017-06-22T18:42:19.477Z,22.90
2017-06-22T18:44:46.953Z,21.90
2017-06-22T18:47:14.413Z,21.30
2017-06-22T18:49:41.878Z,21.00
2017-06-22T18:52:09.382Z,21.00
2017-06-22T18:54:36.852Z,21.00
2017-06-22T18:57:04.314Z,21.00
2017-06-22T18:59:31.784Z,21.10
2017-06-22T19:01:59.239Z,21.10
2017-06-22T19:04:26.718Z,21.10
2017-06-22T19:06:54.170Z,21.20
2017-06-22T19:09:21.625Z,21.30
2017-06-22T19:11:49.098Z,21.40
2017-06-22T19:14:16.564Z,21.40
2017-06-22T19:16:44.036Z,21.50
2017-06-22T19:19:11.485Z,21.60
2017-06-22T19:21:39.717Z,21.70
2017-06-22T19:24:07.168Z,21.70
2017-06-22T19:26:34.638Z,21.80
2017-06-22T19:29:02.094Z,21.80
2017-06-22T19:31:29.565Z,21.60
2017-06-22T19:33:57.020Z,21.10
2017-06-22T19:36:24.478Z,21.10
2017-06-22T19:38:51.949Z,21.00
2017-06-22T19:41:19.405Z,21.10
2017-06-22T19:43:46.869Z,21.20
2017-06-22T19:46:15.097Z,21.30
2017-06-22T19:48:42.569Z,21.30
2017-06-22T19:51:10.058Z,21.20
2017-06-22T19:53:37.533Z,21.20
2017-06-22T19:56:05.753Z,21.20
2017-06-22T19:58:33.241Z,21.20
2017-06-22T20:01:00.697Z,21.20
2017-06-22T20:03:28.150Z,21.20
2017-06-22T20:05:55.621Z,21.30
2017-06-22T20:08:23.069Z,21.40
2017-06-22T20:10:50.541Z,21.50
2017-06-22T20:13:18.768Z,21.60
2017-06-22T20:15:46.242Z,21.60
2017-06-22T20:18:13.701Z,21.60
2017-06-22T20:20:41.169Z,21.70
2017-06-22T20:23:08.630Z,21.70
2017-06-22T20:25:36.118Z,21.70
2017-06-22T20:28:03.578Z,21.60
2017-06-22T20:30:31.038Z,21.50
2017-06-22T20:32:58.517Z,21.30
2017-06-22T20:35:25.974Z,21.20
2017-06-22T20:37:53.445Z,21.10
2017-06-22T20:40:20.905Z,20.90
2017-06-22T20:42:48.378Z,20.80
2017-06-22T20:45:15.840Z,20.70
2017-06-22T20:47:43.305Z,20.70
2017-06-22T20:50:16.544Z,20.80
2017-06-22T20:52:44.013Z,21.10
2017-06-22T20:55:11.475Z,21.30
2017-06-22T20:57:38.944Z,21.50
2017-06-22T21:00:06.401Z,21.70
2017-06-22T21:02:33.853Z,21.80
2017-06-22T21:05:01.317Z,21.90
2017-06-22T21:07:28.776Z,22.00
2017-06-22T21:09:56.249Z,22.00
2017-06-22T21:12:23.705Z,22.10
2017-06-22T21:14:51.178Z,22.10
2017-06-22T21:17:18.637Z,22.10
2017-06-22T21:19:46.869Z,22.00
2017-06-22T21:22:14.334Z,21.90
2017-06-22T21:24:41.797Z,21.90
2017-06-22T21:27:09.259Z,21.80
2017-06-22T21:29:36.728Z,21.60
2017-06-22T21:32:04.192Z,21.60
2017-06-22T21:34:32.417Z,21.40
2017-06-22T21:36:59.897Z,21.40
2017-06-22T21:39:27.353Z,21.30
2017-06-22T21:41:54.821Z,21.20
2017-06-22T21:44:22.279Z,21.20
2017-06-22T21:46:49.745Z,21.20
2017-06-22T21:49:17.197Z,21.20
2017-06-22T21:51:44.662Z,21.30
2017-06-22T21:54:12.113Z,21.30
2017-06-22T21:56:39.582Z,21.30
2017-06-22T21:59:07.804Z,21.30
2017-06-22T22:01:35.270Z,21.30
2017-06-22T22:04:02.725Z,21.30
2017-06-22T22:06:30.217Z,21.30
2017-06-22T22:08:57.669Z,21.30
2017-06-22T22:11:25.121Z,21.30
2017-06-22T22:13:52.593Z,21.30
2017-06-22T22:16:20.055Z,21.40
2017-06-22T22:18:47.523Z,21.40
2017-06-22T22:21:15.739Z,21.30
2017-06-22T22:23:43.213Z,21.30
2017-06-22T22:26:10.685Z,21.30
2017-06-22T22:28:38.165Z,21.30
2017-06-22T22:31:06.389Z,21.20
2017-06-22T22:33:33.861Z,21.20
2017-06-22T22:36:01.338Z,21.20
2017-06-22T22:38:28.801Z,21.10
2017-06-22T22:40:56.276Z,21.10
2017-06-22T22:43:24.492Z,21.10
2017-06-22T22:45:51.964Z,21.00
2017-06-22T22:48:19.421Z,21.10
2017-06-22T22:50:46.897Z,21.10
2017-06-22T22:53:14.353Z,21.00
2017-06-22T22:55:41.918Z,21.00
2017-06-22T22:58:09.375Z,20.90
2017-06-22T23:00:36.826Z,20.90
2017-06-22T23:03:04.297Z,20.80
2017-06-22T23:05:32.530Z,20.60
2017-06-22T23:08:00.003Z,20.60
2017-06-22T23:10:27.450Z,20.50
2017-06-22T23:12:54.914Z,20.50
2017-06-22T23:15:22.365Z,20.40
2017-06-22T23:17:49.829Z,20.30
2017-06-22T23:20:17.294Z,20.20
2017-06-22T23:22:44.760Z,20.20
2017-06-22T23:25:12.228Z,20.20
2017-06-22T23:27:40.472Z,19.90
2017-06-22T23:30:07.934Z,19.90
2017-06-22T23:32:35.389Z,19.90
2017-06-22T23:35:02.857Z,19.80
2017-06-22T23:37:30.316Z,19.80
2017-06-22T23:39:57.791Z,19.70
2017-06-22T23:42:26.012Z,19.50
2017-06-22T23:44:53.485Z,19.50
2017-06-22T23:47:20.941Z,19.50
2017-06-22T23:49:48.409Z,19.30
2017-06-22T23:52:15.873Z,19.30
2017-06-22T23:54:43.357Z,19.20
2017-06-22T23:57:11.577Z,19.10
2017-06-22T23:59:39.040Z,19.10
